sensor_id;sensor_type;location;lat;lon;timestamp;P1;durP1;ratioP1;P2;durP2;ratioP2
63499;SDS011;49654;51.142;14.924;2023-03-01T00:01:13;45.53;;;25.27;;
63499;SDS011;49654;51.142;14.924;2023-03-01T00:03:42;50.57;;;27.90;;
63499;SDS011;49654;51.142;14.924;2023-03-01T00:06:09;51.17;;;27.47;;
63499;SDS011;49654;51.142;14.924;2023-03-01T00:08:37;46.60;;;24.57;;
63499;SDS011;49654;51.142;14.924;2023-03-01T00:11:04;43.47;;;25.13;;
63499;SDS011;49654;51.142;14.924;2023-03-01T00:13:33;49.30;;;24.83;;
63499;SDS011;49654;51.142;14.924;2023-03-01T00:16:02;50.70;;;26.50;;
63499;SDS011;49654;51.142;14.924;2023-03-01T00:18:30;49.33;;;26.80;;
63499;SDS011;49654;51.142;14.924;2023-03-01T00:20:57;49.17;;;25.67;;
63499;SDS011;49654;51.142;14.924;2023-03-01T00:23:25;50.47;;;26.50;;
63499;SDS011;49654;51.142;14.924;2023-03-01T00:25:52;48.73;;;26.33;;
63499;SDS011;49654;51.142;14.924;2023-03-01T00:28:20;51.00;;;25.57;;
63499;SDS011;49654;51.142;14.924;2023-03-01T00:30:47;47.80;;;24.60;;
63499;SDS011;49654;51.142;14.924;2023-03-01T00:33:15;44.90;;;25.50;;
63499;SDS011;49654;51.142;14.924;2023-03-01T00:35:42;46.87;;;24.90;;
63499;SDS011;49654;51.142;14.924;2023-03-01T00:38:09;49.57;;;25.87;;
63499;SDS011;49654;51.142;14.924;2023-03-01T00:40:37;46.40;;;25.60;;
63499;SDS011;49654;51.142;14.924;2023-03-01T00:43:04;48.70;;;25.50;;
63499;SDS011;49654;51.142;14.924;2023-03-01T00:45:32;46.27;;;24.83;;
63499;SDS011;49654;51.142;14.924;2023-03-01T00:47:59;44.97;;;25.37;;
63499;SDS011;49654;51.142;14.924;2023-03-01T00:50:28;47.20;;;24.63;;
63499;SDS011;49654;51.142;14.924;2023-03-01T00:52:55;47.10;;;23.93;;
63499;SDS011;49654;51.142;14.924;2023-03-01T00:55:22;45.90;;;24.43;;
63499;SDS011;49654;51.142;14.924;2023-03-01T00:57:49;46.77;;;24.60;;
63499;SDS011;49654;51.142;14.924;2023-03-01T01:00:17;44.60;;;24.40;;
63499;SDS011;49654;51.142;14.924;2023-03-01T01:02:45;45.40;;;24.53;;
63499;SDS011;49654;51.142;14.924;2023-03-01T01:05:13;45.67;;;25.20;;
63499;SDS011;49654;51.142;14.924;2023-03-01T01:07:41;43.70;;;25.20;;
63499;SDS011;49654;51.142;14.924;2023-03-01T01:10:09;45.73;;;25.60;;
63499;SDS011;49654;51.142;14.924;2023-03-01T01:12:43;46.50;;;24.93;;
63499;SDS011;49654;51.142;14.924;2023-03-01T01:15:10;47.33;;;25.87;;
63499;SDS011;49654;51.142;14.924;2023-03-01T01:17:39;46.37;;;25.07;;
63499;SDS011;49654;51.142;14.924;2023-03-01T01:20:07;47.57;;;25.50;;
63499;SDS011;49654;51.142;14.924;2023-03-01T01:22:35;44.37;;;25.10;;
63499;SDS011;49654;51.142;14.924;2023-03-01T01:25:03;46.63;;;25.37;;
63499;SDS011;49654;51.142;14.924;2023-03-01T01:27:31;44.77;;;23.73;;
63499;SDS011;49654;51.142;14.924;2023-03-01T01:29:57;42.90;;;25.70;;
63499;SDS011;49654;51.142;14.924;2023-03-01T01:32:24;45.90;;;24.53;;
63499;SDS011;49654;51.142;14.924;2023-03-01T01:34:51;44.70;;;24.93;;
63499;SDS011;49654;51.142;14.924;2023-03-01T01:37:18;46.50;;;25.53;;
63499;SDS011;49654;51.142;14.924;2023-03-01T01:39:45;47.77;;;24.67;;
63499;SDS011;49654;51.142;14.924;2023-03-01T01:42:15;45.33;;;24.47;;
63499;SDS011;49654;51.142;14.924;2023-03-01T01:44:44;46.17;;;23.90;;
63499;SDS011;49654;51.142;14.924;2023-03-01T01:47:14;40.87;;;24.40;;
63499;SDS011;49654;51.142;14.924;2023-03-01T01:49:44;45.20;;;24.70;;
63499;SDS011;49654;51.142;14.924;2023-03-01T01:52:16;47.00;;;24.83;;
63499;SDS011;49654;51.142;14.924;2023-03-01T01:54:49;46.23;;;25.70;;
63499;SDS011;49654;51.142;14.924;2023-03-01T01:57:20;44.40;;;24.40;;
63499;SDS011;49654;51.142;14.924;2023-03-01T01:59:51;45.57;;;24.33;;
63499;SDS011;49654;51.142;14.924;2023-03-01T02:02:21;41.90;;;23.10;;
63499;SDS011;49654;51.142;14.924;2023-03-01T02:04:49;49.20;;;24.57;;
63499;SDS011;49654;51.142;14.924;2023-03-01T02:07:19;49.93;;;25.03;;
63499;SDS011;49654;51.142;14.924;2023-03-01T02:09:49;44.80;;;24.43;;
63499;SDS011;49654;51.142;14.924;2023-03-01T02:12:21;42.83;;;24.93;;
63499;SDS011;49654;51.142;14.924;2023-03-01T02:14:50;46.20;;;25.30;;
63499;SDS011;49654;51.142;14.924;2023-03-01T02:17:17;48.27;;;25.50;;
63499;SDS011;49654;51.142;14.924;2023-03-01T02:19:48;45.60;;;24.90;;
63499;SDS011;49654;51.142;14.924;2023-03-01T02:22:25;46.90;;;25.37;;
63499;SDS011;49654;51.142;14.924;2023-03-01T02:24:59;48.60;;;25.53;;
63499;SDS011;49654;51.142;14.924;2023-03-01T02:27:38;46.10;;;25.00;;
63499;SDS011;49654;51.142;14.924;2023-03-01T02:30:13;48.07;;;25.20;;
63499;SDS011;49654;51.142;14.924;2023-03-01T02:32:40;47.33;;;25.17;;
63499;SDS011;49654;51.142;14.924;2023-03-01T02:35:08;47.93;;;25.60;;
63499;SDS011;49654;51.142;14.924;2023-03-01T02:37:36;51.00;;;26.17;;
63499;SDS011;49654;51.142;14.924;2023-03-01T02:40:06;50.60;;;25.97;;
63499;SDS011;49654;51.142;14.924;2023-03-01T02:42:40;45.27;;;24.57;;
63499;SDS011;49654;51.142;14.924;2023-03-01T02:45:17;50.80;;;26.13;;
63499;SDS011;49654;51.142;14.924;2023-03-01T02:47:44;49.80;;;26.83;;
63499;SDS011;49654;51.142;14.924;2023-03-01T02:50:17;56.30;;;27.77;;
63499;SDS011;49654;51.142;14.924;2023-03-01T02:53:00;49.20;;;26.17;;
63499;SDS011;49654;51.142;14.924;2023-03-01T02:55:33;53.77;;;28.30;;
63499;SDS011;49654;51.142;14.924;2023-03-01T02:58:00;50.50;;;25.53;;
63499;SDS011;49654;51.142;14.924;2023-03-01T03:00:31;50.70;;;27.10;;
63499;SDS011;49654;51.142;14.924;2023-03-01T03:03:05;52.10;;;26.37;;
63499;SDS011;49654;51.142;14.924;2023-03-01T03:05:32;49.37;;;27.20;;
63499;SDS011;49654;51.142;14.924;2023-03-01T03:08:00;48.03;;;25.33;;
63499;SDS011;49654;51.142;14.924;2023-03-01T03:10:30;49.90;;;27.70;;
63499;SDS011;49654;51.142;14.924;2023-03-01T03:12:59;51.70;;;25.60;;
63499;SDS011;49654;51.142;14.924;2023-03-01T03:15:28;49.13;;;26.67;;
63499;SDS011;49654;51.142;14.924;2023-03-01T03:17:58;49.80;;;26.87;;
63499;SDS011;49654;51.142;14.924;2023-03-01T03:20:26;56.67;;;27.67;;
63499;SDS011;49654;51.142;14.924;2023-03-01T03:22:55;47.40;;;26.47;;
63499;SDS011;49654;51.142;14.924;2023-03-01T03:25:24;52.17;;;26.87;;
63499;SDS011;49654;51.142;14.924;2023-03-01T03:27:52;49.83;;;26.13;;
63499;SDS011;49654;51.142;14.924;2023-03-01T03:30:22;50.33;;;27.93;;
63499;SDS011;49654;51.142;14.924;2023-03-01T03:32:53;50.00;;;25.93;;
63499;SDS011;49654;51.142;14.924;2023-03-01T03:35:22;49.30;;;26.80;;
63499;SDS011;49654;51.142;14.924;2023-03-01T03:37:51;51.83;;;26.60;;
63499;SDS011;49654;51.142;14.924;2023-03-01T03:40:29;48.37;;;25.37;;
63499;SDS011;49654;51.142;14.924;2023-03-01T03:42:56;49.17;;;25.37;;
63499;SDS011;49654;51.142;14.924;2023-03-01T03:45:23;48.10;;;26.00;;
63499;SDS011;49654;51.142;14.924;2023-03-01T03:47:50;51.07;;;27.73;;
63499;SDS011;49654;51.142;14.924;2023-03-01T03:50:19;51.37;;;27.63;;
63499;SDS011;49654;51.142;14.924;2023-03-01T03:52:46;52.53;;;26.97;;
63499;SDS011;49654;51.142;14.924;2023-03-01T03:55:13;52.70;;;26.37;;
63499;SDS011;49654;51.142;14.924;2023-03-01T03:57:45;53.07;;;27.50;;
63499;SDS011;49654;51.142;14.924;2023-03-01T04:00:17;46.47;;;26.33;;
63499;SDS011;49654;51.142;14.924;2023-03-01T04:02:45;47.57;;;25.90;;
63499;SDS011;49654;51.142;14.924;2023-03-01T04:05:14;54.33;;;26.97;;
63499;SDS011;49654;51.142;14.924;2023-03-01T04:07:43;51.63;;;27.23;;
63499;SDS011;49654;51.142;14.924;2023-03-01T04:10:12;53.97;;;27.30;;
63499;SDS011;49654;51.142;14.924;2023-03-01T04:12:41;48.50;;;26.10;;
63499;SDS011;49654;51.142;14.924;2023-03-01T04:15:09;50.60;;;27.07;;
63499;SDS011;49654;51.142;14.924;2023-03-01T04:17:41;49.87;;;26.37;;
63499;SDS011;49654;51.142;14.924;2023-03-01T04:20:10;52.07;;;26.13;;
63499;SDS011;49654;51.142;14.924;2023-03-01T04:22:38;52.07;;;27.63;;
63499;SDS011;49654;51.142;14.924;2023-03-01T04:25:07;49.33;;;27.03;;
63499;SDS011;49654;51.142;14.924;2023-03-01T04:27:39;49.20;;;26.33;;
63499;SDS011;49654;51.142;14.924;2023-03-01T04:30:07;51.03;;;26.83;;
63499;SDS011;49654;51.142;14.924;2023-03-01T04:32:35;54.13;;;26.77;;
63499;SDS011;49654;51.142;14.924;2023-03-01T04:35:02;53.43;;;26.97;;
63499;SDS011;49654;51.142;14.924;2023-03-01T04:37:29;54.53;;;27.53;;
63499;SDS011;49654;51.142;14.924;2023-03-01T04:39:56;52.63;;;27.13;;
63499;SDS011;49654;51.142;14.924;2023-03-01T04:42:25;51.10;;;28.00;;
63499;SDS011;49654;51.142;14.924;2023-03-01T04:44:52;50.07;;;27.47;;
63499;SDS011;49654;51.142;14.924;2023-03-01T04:47:19;52.33;;;28.43;;
63499;SDS011;49654;51.142;14.924;2023-03-01T04:49:46;54.53;;;28.70;;
63499;SDS011;49654;51.142;14.924;2023-03-01T04:52:12;52.60;;;28.10;;
63499;SDS011;49654;51.142;14.924;2023-03-01T04:54:39;49.47;;;27.17;;
63499;SDS011;49654;51.142;14.924;2023-03-01T04:57:06;50.83;;;27.33;;
63499;SDS011;49654;51.142;14.924;2023-03-01T04:59:35;52.20;;;27.90;;
63499;SDS011;49654;51.142;14.924;2023-03-01T05:02:02;56.17;;;29.10;;
63499;SDS011;49654;51.142;14.924;2023-03-01T05:04:29;57.43;;;28.97;;
63499;SDS011;49654;51.142;14.924;2023-03-01T05:06:57;53.40;;;28.93;;
63499;SDS011;49654;51.142;14.924;2023-03-01T05:09:24;52.07;;;27.63;;
63499;SDS011;49654;51.142;14.924;2023-03-01T05:11:51;57.47;;;29.10;;
63499;SDS011;49654;51.142;14.924;2023-03-01T05:14:18;56.33;;;29.63;;
63499;SDS011;49654;51.142;14.924;2023-03-01T05:16:46;54.97;;;28.97;;
63499;SDS011;49654;51.142;14.924;2023-03-01T05:19:13;53.77;;;28.77;;
63499;SDS011;49654;51.142;14.924;2023-03-01T05:21:41;56.50;;;30.03;;
63499;SDS011;49654;51.142;14.924;2023-03-01T05:24:22;56.83;;;30.43;;
63499;SDS011;49654;51.142;14.924;2023-03-01T05:26:49;58.73;;;29.93;;
63499;SDS011;49654;51.142;14.924;2023-03-01T05:29:17;66.47;;;36.30;;
63499;SDS011;49654;51.142;14.924;2023-03-01T05:31:52;63.80;;;33.73;;
63499;SDS011;49654;51.142;14.924;2023-03-01T05:34:22;62.40;;;34.23;;
63499;SDS011;49654;51.142;14.924;2023-03-01T05:36:51;67.77;;;34.13;;
63499;SDS011;49654;51.142;14.924;2023-03-01T05:39:19;67.33;;;33.53;;
63499;SDS011;49654;51.142;14.924;2023-03-01T05:41:47;62.63;;;33.03;;
63499;SDS011;49654;51.142;14.924;2023-03-01T05:44:14;57.63;;;31.33;;
63499;SDS011;49654;51.142;14.924;2023-03-01T05:46:41;56.87;;;29.90;;
63499;SDS011;49654;51.142;14.924;2023-03-01T05:49:10;62.63;;;33.50;;
63499;SDS011;49654;51.142;14.924;2023-03-01T05:51:38;63.67;;;35.17;;
63499;SDS011;49654;51.142;14.924;2023-03-01T05:54:05;57.17;;;31.83;;
63499;SDS011;49654;51.142;14.924;2023-03-01T05:56:33;61.97;;;32.03;;
63499;SDS011;49654;51.142;14.924;2023-03-01T05:59:00;61.33;;;30.73;;
63499;SDS011;49654;51.142;14.924;2023-03-01T06:01:27;61.97;;;32.53;;
63499;SDS011;49654;51.142;14.924;2023-03-01T06:03:54;61.33;;;33.40;;
63499;SDS011;49654;51.142;14.924;2023-03-01T06:06:23;68.70;;;32.83;;
63499;SDS011;49654;51.142;14.924;2023-03-01T06:08:50;59.33;;;32.30;;
63499;SDS011;49654;51.142;14.924;2023-03-01T06:11:18;62.23;;;35.27;;
63499;SDS011;49654;51.142;14.924;2023-03-01T06:13:45;62.23;;;34.17;;
63499;SDS011;49654;51.142;14.924;2023-03-01T06:16:13;61.50;;;33.83;;
63499;SDS011;49654;51.142;14.924;2023-03-01T06:18:40;63.50;;;34.97;;
63499;SDS011;49654;51.142;14.924;2023-03-01T06:21:08;72.47;;;35.53;;
63499;SDS011;49654;51.142;14.924;2023-03-01T06:23:36;61.40;;;34.70;;
63499;SDS011;49654;51.142;14.924;2023-03-01T06:26:05;65.87;;;35.47;;
63499;SDS011;49654;51.142;14.924;2023-03-01T06:28:33;65.67;;;36.37;;
63499;SDS011;49654;51.142;14.924;2023-03-01T06:31:00;70.23;;;37.43;;
63499;SDS011;49654;51.142;14.924;2023-03-01T06:33:27;72.97;;;38.83;;
63499;SDS011;49654;51.142;14.924;2023-03-01T06:35:54;67.10;;;37.73;;
63499;SDS011;49654;51.142;14.924;2023-03-01T06:38:22;68.60;;;36.47;;
63499;SDS011;49654;51.142;14.924;2023-03-01T06:40:54;67.73;;;36.40;;
63499;SDS011;49654;51.142;14.924;2023-03-01T06:43:22;69.33;;;37.67;;
63499;SDS011;49654;51.142;14.924;2023-03-01T06:45:49;66.63;;;37.37;;
63499;SDS011;49654;51.142;14.924;2023-03-01T06:48:16;70.20;;;39.23;;
63499;SDS011;49654;51.142;14.924;2023-03-01T06:50:43;70.27;;;36.67;;
63499;SDS011;49654;51.142;14.924;2023-03-01T06:53:10;77.90;;;39.90;;
63499;SDS011;49654;51.142;14.924;2023-03-01T06:55:37;70.60;;;38.47;;
63499;SDS011;49654;51.142;14.924;2023-03-01T06:58:05;75.87;;;40.43;;
63499;SDS011;49654;51.142;14.924;2023-03-01T07:00:32;74.30;;;41.73;;
63499;SDS011;49654;51.142;14.924;2023-03-01T07:03:00;78.10;;;43.13;;
63499;SDS011;49654;51.142;14.924;2023-03-01T07:05:28;78.00;;;42.17;;
63499;SDS011;49654;51.142;14.924;2023-03-01T07:07:55;82.43;;;45.77;;
63499;SDS011;49654;51.142;14.924;2023-03-01T07:10:22;85.47;;;45.97;;
63499;SDS011;49654;51.142;14.924;2023-03-01T07:12:49;77.50;;;42.67;;
63499;SDS011;49654;51.142;14.924;2023-03-01T07:15:18;79.10;;;41.80;;
63499;SDS011;49654;51.142;14.924;2023-03-01T07:17:45;78.27;;;42.13;;
63499;SDS011;49654;51.142;14.924;2023-03-01T07:20:13;87.10;;;46.37;;
63499;SDS011;49654;51.142;14.924;2023-03-01T07:22:40;78.43;;;43.77;;
63499;SDS011;49654;51.142;14.924;2023-03-01T07:25:08;76.00;;;41.53;;
63499;SDS011;49654;51.142;14.924;2023-03-01T07:27:36;74.83;;;42.33;;
63499;SDS011;49654;51.142;14.924;2023-03-01T07:30:03;79.03;;;41.40;;
63499;SDS011;49654;51.142;14.924;2023-03-01T07:32:32;75.23;;;43.07;;
63499;SDS011;49654;51.142;14.924;2023-03-01T07:34:59;73.83;;;42.87;;
63499;SDS011;49654;51.142;14.924;2023-03-01T07:37:26;75.33;;;43.73;;
63499;SDS011;49654;51.142;14.924;2023-03-01T07:39:53;80.73;;;46.37;;
63499;SDS011;49654;51.142;14.924;2023-03-01T07:42:20;85.23;;;47.23;;
63499;SDS011;49654;51.142;14.924;2023-03-01T07:44:47;116.37;;;67.70;;
63499;SDS011;49654;51.142;14.924;2023-03-01T07:47:14;92.73;;;53.00;;
63499;SDS011;49654;51.142;14.924;2023-03-01T07:49:42;77.00;;;44.63;;
63499;SDS011;49654;51.142;14.924;2023-03-01T07:52:09;91.37;;;50.47;;
63499;SDS011;49654;51.142;14.924;2023-03-01T07:54:37;91.97;;;53.50;;
63499;SDS011;49654;51.142;14.924;2023-03-01T07:57:04;90.70;;;51.37;;
63499;SDS011;49654;51.142;14.924;2023-03-01T07:59:31;83.27;;;45.10;;
63499;SDS011;49654;51.142;14.924;2023-03-01T08:01:58;75.73;;;42.80;;
63499;SDS011;49654;51.142;14.924;2023-03-01T08:04:25;74.80;;;44.00;;
63499;SDS011;49654;51.142;14.924;2023-03-01T08:06:54;79.97;;;42.87;;
63499;SDS011;49654;51.142;14.924;2023-03-01T08:09:21;78.53;;;43.40;;
63499;SDS011;49654;51.142;14.924;2023-03-01T08:11:48;73.63;;;42.40;;
63499;SDS011;49654;51.142;14.924;2023-03-01T08:14:15;72.33;;;39.67;;
63499;SDS011;49654;51.142;14.924;2023-03-01T08:16:43;66.43;;;37.23;;
63499;SDS011;49654;51.142;14.924;2023-03-01T08:19:11;65.93;;;39.30;;
63499;SDS011;49654;51.142;14.924;2023-03-01T08:21:38;64.87;;;37.43;;
63499;SDS011;49654;51.142;14.924;2023-03-01T08:24:07;64.07;;;37.67;;
63499;SDS011;49654;51.142;14.924;2023-03-01T08:26:35;64.83;;;37.70;;
63499;SDS011;49654;51.142;14.924;2023-03-01T08:29:03;66.77;;;36.97;;
63499;SDS011;49654;51.142;14.924;2023-03-01T08:31:31;62.83;;;37.90;;
63499;SDS011;49654;51.142;14.924;2023-03-01T08:34:02;65.17;;;37.13;;
63499;SDS011;49654;51.142;14.924;2023-03-01T08:36:35;64.07;;;38.53;;
63499;SDS011;49654;51.142;14.924;2023-03-01T08:39:04;64.73;;;38.50;;
63499;SDS011;49654;51.142;14.924;2023-03-01T08:41:33;67.33;;;39.03;;
63499;SDS011;49654;51.142;14.924;2023-03-01T08:44:00;65.87;;;39.10;;
63499;SDS011;49654;51.142;14.924;2023-03-01T08:46:27;61.93;;;37.83;;
63499;SDS011;49654;51.142;14.924;2023-03-01T08:48:55;70.17;;;38.57;;
63499;SDS011;49654;51.142;14.924;2023-03-01T08:51:22;65.97;;;38.63;;
63499;SDS011;49654;51.142;14.924;2023-03-01T08:53:50;67.70;;;39.97;;
63499;SDS011;49654;51.142;14.924;2023-03-01T08:56:17;60.47;;;36.60;;
63499;SDS011;49654;51.142;14.924;2023-03-01T08:58:47;56.13;;;35.37;;
63499;SDS011;49654;51.142;14.924;2023-03-01T09:01:15;57.03;;;35.20;;
63499;SDS011;49654;51.142;14.924;2023-03-01T09:03:45;55.38;;;32.67;;
63499;SDS011;49654;51.142;14.924;2023-03-01T09:06:12;52.45;;;32.50;;
63499;SDS011;49654;51.142;14.924;2023-03-01T09:08:40;51.25;;;32.85;;
63499;SDS011;49654;51.142;14.924;2023-03-01T09:11:09;56.03;;;34.35;;
63499;SDS011;49654;51.142;14.924;2023-03-01T09:13:38;51.38;;;32.72;;
63499;SDS011;49654;51.142;14.924;2023-03-01T09:16:07;50.95;;;32.45;;
63499;SDS011;49654;51.142;14.924;2023-03-01T09:18:35;51.97;;;32.97;;
63499;SDS011;49654;51.142;14.924;2023-03-01T09:21:02;54.33;;;34.17;;
63499;SDS011;49654;51.142;14.924;2023-03-01T09:23:33;50.67;;;32.85;;
63499;SDS011;49654;51.142;14.924;2023-03-01T09:26:01;50.97;;;32.53;;
63499;SDS011;49654;51.142;14.924;2023-03-01T09:28:28;48.70;;;32.78;;
63499;SDS011;49654;51.142;14.924;2023-03-01T09:30:57;53.70;;;33.80;;
63499;SDS011;49654;51.142;14.924;2023-03-01T09:33:26;48.38;;;32.78;;
63499;SDS011;49654;51.142;14.924;2023-03-01T09:35:55;58.15;;;33.47;;
63499;SDS011;49654;51.142;14.924;2023-03-01T09:38:23;54.15;;;32.78;;
63499;SDS011;49654;51.142;14.924;2023-03-01T09:40:50;50.13;;;33.00;;
63499;SDS011;49654;51.142;14.924;2023-03-01T09:43:18;50.70;;;33.38;;
63499;SDS011;49654;51.142;14.924;2023-03-01T09:45:50;50.25;;;31.98;;
63499;SDS011;49654;51.142;14.924;2023-03-01T09:48:21;53.70;;;32.45;;
63499;SDS011;49654;51.142;14.924;2023-03-01T09:50:54;51.22;;;32.97;;
63499;SDS011;49654;51.142;14.924;2023-03-01T09:53:23;48.55;;;31.77;;
63499;SDS011;49654;51.142;14.924;2023-03-01T09:55:58;49.53;;;30.02;;
63499;SDS011;49654;51.142;14.924;2023-03-01T09:58:34;41.42;;;27.95;;
63499;SDS011;49654;51.142;14.924;2023-03-01T10:01:14;50.42;;;31.33;;
63499;SDS011;49654;51.142;14.924;2023-03-01T10:03:57;53.80;;;32.00;;
63499;SDS011;49654;51.142;14.924;2023-03-01T10:06:32;53.72;;;32.78;;
63499;SDS011;49654;51.142;14.924;2023-03-01T10:09:00;55.27;;;33.00;;
63499;SDS011;49654;51.142;14.924;2023-03-01T10:11:32;58.40;;;33.60;;
63499;SDS011;49654;51.142;14.924;2023-03-01T10:14:05;54.97;;;34.57;;
63499;SDS011;49654;51.142;14.924;2023-03-01T10:16:40;52.85;;;32.15;;
63499;SDS011;49654;51.142;14.924;2023-03-01T10:19:14;55.23;;;32.57;;
63499;SDS011;49654;51.142;14.924;2023-03-01T10:21:49;49.77;;;30.50;;
63499;SDS011;49654;51.142;14.924;2023-03-01T10:24:18;49.77;;;31.33;;
63499;SDS011;49654;51.142;14.924;2023-03-01T10:26:48;64.17;;;33.37;;
63499;SDS011;49654;51.142;14.924;2023-03-01T10:29:23;48.53;;;30.17;;
63499;SDS011;49654;51.142;14.924;2023-03-01T10:31:52;50.22;;;30.50;;
63499;SDS011;49654;51.142;14.924;2023-03-01T10:34:29;49.53;;;28.83;;
63499;SDS011;49654;51.142;14.924;2023-03-01T10:37:00;43.87;;;27.43;;
63499;SDS011;49654;51.142;14.924;2023-03-01T10:39:35;45.50;;;29.13;;
63499;SDS011;49654;51.142;14.924;2023-03-01T10:42:03;50.45;;;30.23;;
63499;SDS011;49654;51.142;14.924;2023-03-01T10:44:39;51.10;;;31.75;;
63499;SDS011;49654;51.142;14.924;2023-03-01T10:47:16;47.80;;;29.17;;
63499;SDS011;49654;51.142;14.924;2023-03-01T10:49:53;58.53;;;29.70;;
63499;SDS011;49654;51.142;14.924;2023-03-01T10:52:25;47.35;;;28.40;;
63499;SDS011;49654;51.142;14.924;2023-03-01T10:54:58;46.28;;;29.48;;
63499;SDS011;49654;51.142;14.924;2023-03-01T10:57:34;41.50;;;25.77;;
63499;SDS011;49654;51.142;14.924;2023-03-01T11:00:17;38.33;;;24.35;;
63499;SDS011;49654;51.142;14.924;2023-03-01T11:03:02;40.60;;;24.85;;
63499;SDS011;49654;51.142;14.924;2023-03-01T11:05:36;37.33;;;25.17;;
63499;SDS011;49654;51.142;14.924;2023-03-01T11:08:05;35.97;;;23.95;;
63499;SDS011;49654;51.142;14.924;2023-03-01T11:10:33;42.13;;;24.42;;
63499;SDS011;49654;51.142;14.924;2023-03-01T11:13:08;36.22;;;24.48;;
63499;SDS011;49654;51.142;14.924;2023-03-01T11:15:40;38.53;;;22.83;;
63499;SDS011;49654;51.142;14.924;2023-03-01T11:18:18;33.03;;;22.45;;
63499;SDS011;49654;51.142;14.924;2023-03-01T11:20:46;36.25;;;21.48;;
63499;SDS011;49654;51.142;14.924;2023-03-01T11:23:17;32.85;;;22.00;;
63499;SDS011;49654;51.142;14.924;2023-03-01T11:25:47;37.25;;;22.10;;
63499;SDS011;49654;51.142;14.924;2023-03-01T11:28:19;31.67;;;20.33;;
63499;SDS011;49654;51.142;14.924;2023-03-01T11:30:49;33.50;;;20.05;;
63499;SDS011;49654;51.142;14.924;2023-03-01T11:33:23;29.08;;;18.10;;
63499;SDS011;49654;51.142;14.924;2023-03-01T11:36:01;26.02;;;17.63;;
63499;SDS011;49654;51.142;14.924;2023-03-01T11:38:34;27.75;;;18.38;;
63499;SDS011;49654;51.142;14.924;2023-03-01T11:41:05;30.48;;;19.70;;
63499;SDS011;49654;51.142;14.924;2023-03-01T11:43:36;28.40;;;18.55;;
63499;SDS011;49654;51.142;14.924;2023-03-01T11:49:17;26.25;;;15.90;;
63499;SDS011;49654;51.142;14.924;2023-03-01T11:52:05;22.65;;;16.42;;
63499;SDS011;49654;51.142;14.924;2023-03-01T11:54:45;28.27;;;16.80;;
63499;SDS011;49654;51.142;14.924;2023-03-01T11:57:26;27.33;;;17.15;;
63499;SDS011;49654;51.142;14.924;2023-03-01T12:00:14;28.00;;;16.65;;
63499;SDS011;49654;51.142;14.924;2023-03-01T12:03:01;24.77;;;16.95;;
63499;SDS011;49654;51.142;14.924;2023-03-01T12:06:05;30.30;;;18.08;;
63499;SDS011;49654;51.142;14.924;2023-03-01T12:08:45;29.67;;;17.58;;
63499;SDS011;49654;51.142;14.924;2023-03-01T12:11:26;29.75;;;16.80;;
63499;SDS011;49654;51.142;14.924;2023-03-01T12:14:10;28.23;;;17.13;;
63499;SDS011;49654;51.142;14.924;2023-03-01T12:16:55;25.05;;;17.00;;
63499;SDS011;49654;51.142;14.924;2023-03-01T12:19:49;24.60;;;17.42;;
63499;SDS011;49654;51.142;14.924;2023-03-01T12:22:30;22.33;;;14.50;;
63499;SDS011;49654;51.142;14.924;2023-03-01T12:25:02;18.33;;;12.88;;
63499;SDS011;49654;51.142;14.924;2023-03-01T12:27:50;19.98;;;14.43;;
63499;SDS011;49654;51.142;14.924;2023-03-01T12:30:31;24.20;;;13.93;;
63499;SDS011;49654;51.142;14.924;2023-03-01T12:33:13;21.95;;;14.20;;
63499;SDS011;49654;51.142;14.924;2023-03-01T12:35:51;24.60;;;14.10;;
63499;SDS011;49654;51.142;14.924;2023-03-01T12:38:32;22.15;;;14.05;;
63499;SDS011;49654;51.142;14.924;2023-03-01T12:41:11;20.35;;;13.73;;
63499;SDS011;49654;51.142;14.924;2023-03-01T12:43:58;19.65;;;14.93;;
63499;SDS011;49654;51.142;14.924;2023-03-01T12:46:38;25.33;;;14.55;;
63499;SDS011;49654;51.142;14.924;2023-03-01T12:49:19;23.55;;;15.63;;
63499;SDS011;49654;51.142;14.924;2023-03-01T12:51:51;19.33;;;13.23;;
63499;SDS011;49654;51.142;14.924;2023-03-01T12:54:26;19.15;;;13.23;;
63499;SDS011;49654;51.142;14.924;2023-03-01T12:56:54;18.42;;;13.95;;
63499;SDS011;49654;51.142;14.924;2023-03-01T12:59:26;22.35;;;15.25;;
63499;SDS011;49654;51.142;14.924;2023-03-01T13:02:03;21.60;;;14.50;;
63499;SDS011;49654;51.142;14.924;2023-03-01T13:04:39;19.80;;;13.48;;
63499;SDS011;49654;51.142;14.924;2023-03-01T13:07:21;18.02;;;12.52;;
63499;SDS011;49654;51.142;14.924;2023-03-01T13:09:56;19.30;;;12.60;;
63499;SDS011;49654;51.142;14.924;2023-03-01T13:12:41;17.23;;;12.50;;
63499;SDS011;49654;51.142;14.924;2023-03-01T13:17:56;16.95;;;11.95;;
63499;SDS011;49654;51.142;14.924;2023-03-01T13:20:25;18.80;;;11.27;;
63499;SDS011;49654;51.142;14.924;2023-03-01T13:23:01;19.98;;;11.68;;
63499;SDS011;49654;51.142;14.924;2023-03-01T13:25:31;18.08;;;11.02;;
63499;SDS011;49654;51.142;14.924;2023-03-01T13:37:21;12.50;;;9.77;;
63499;SDS011;49654;51.142;14.924;2023-03-01T13:39:51;16.20;;;10.18;;
63499;SDS011;49654;51.142;14.924;2023-03-01T13:45:24;15.25;;;11.30;;
63499;SDS011;49654;51.142;14.924;2023-03-01T13:48:01;13.60;;;11.23;;
63499;SDS011;49654;51.142;14.924;2023-03-01T13:50:38;14.23;;;11.23;;
63499;SDS011;49654;51.142;14.924;2023-03-01T13:53:14;17.35;;;10.73;;
63499;SDS011;49654;51.142;14.924;2023-03-01T13:55:44;15.85;;;10.48;;
63499;SDS011;49654;51.142;14.924;2023-03-01T13:58:16;16.50;;;10.57;;
63499;SDS011;49654;51.142;14.924;2023-03-01T14:00:47;17.05;;;10.57;;
63499;SDS011;49654;51.142;14.924;2023-03-01T14:03:21;14.88;;;9.93;;
63499;SDS011;49654;51.142;14.924;2023-03-01T14:05:59;12.93;;;9.30;;
63499;SDS011;49654;51.142;14.924;2023-03-01T14:08:28;10.95;;;7.65;;
63499;SDS011;49654;51.142;14.924;2023-03-01T14:11:04;12.30;;;7.28;;
63499;SDS011;49654;51.142;14.924;2023-03-01T14:13:54;10.05;;;8.30;;
63499;SDS011;49654;51.142;14.924;2023-03-01T14:16:33;12.52;;;8.15;;
63499;SDS011;49654;51.142;14.924;2023-03-01T14:19:14;10.88;;;8.55;;
63499;SDS011;49654;51.142;14.924;2023-03-01T14:21:46;11.60;;;7.97;;
63499;SDS011;49654;51.142;14.924;2023-03-01T14:24:16;11.88;;;8.07;;
63499;SDS011;49654;51.142;14.924;2023-03-01T14:26:46;16.80;;;8.82;;
63499;SDS011;49654;51.142;14.924;2023-03-01T14:29:23;12.07;;;8.52;;
63499;SDS011;49654;51.142;14.924;2023-03-01T14:32:07;10.68;;;7.90;;
63499;SDS011;49654;51.142;14.924;2023-03-01T14:34:36;10.75;;;7.38;;
63499;SDS011;49654;51.142;14.924;2023-03-01T14:37:14;11.45;;;8.23;;
63499;SDS011;49654;51.142;14.924;2023-03-01T14:39:46;12.85;;;8.27;;
63499;SDS011;49654;51.142;14.924;2023-03-01T14:42:13;11.95;;;8.38;;
63499;SDS011;49654;51.142;14.924;2023-03-01T14:44:42;13.00;;;9.23;;
63499;SDS011;49654;51.142;14.924;2023-03-01T14:47:11;12.68;;;9.45;;